Data for 11/27/2016

Time Sea-Level Adjusted Pressure Absolute Pressure Temperature Relative Humidity Dew Point   
(mb) (inHg) (mb) (inHg) (C) (F) (%) (C) (F)
00:05 1004 29.65 833 24.6 4 39.2 27 -13.6 7.5
00:10 1004 29.65 833 24.6 4.1 39.3 27 -13.2 8.2
00:15 1003 29.62 833 24.6 3.6 38.5 29 -12.8 8.9
00:20 1003 29.62 833 24.6 3.5 38.3 28 -13.2 8.3
00:25 1003 29.62 833 24.6 3.7 38.7 28 -13.2 8.3
00:30 1003 29.62 832 24.57 3.6 38.6 28 -13.1 8.4
00:35 1003 29.62 832 24.57 3.7 38.6 28 -13.1 8.5
00:40 1003 29.62 832 24.57 3.6 38.6 28 -13.1 8.5
00:45 1003 29.62 832 24.57 3.6 38.5 29 -13 8.5
00:50 1003 29.62 832 24.57 3.6 38.4 28 -13.1 8.4
00:55 1003 29.62 832 24.57 3.7 38.7 28 -13.1 8.3
01:00 1003 29.62 832 24.57 3.7 38.7 29 -12.8 8.9
01:05 1003 29.62 832 24.57 3.5 38.3 29 -13 8.6
01:10 1003 29.62 832 24.57 3.8 38.8 28 -13.1 8.5
01:15 1003 29.62 832 24.57 3.7 38.7 29 -12.7 9.1
01:20 1002 29.59 832 24.57 3.5 38.2 31 -12.3 9.9
01:25 1002 29.59 832 24.57 3 37.4 32 -12.3 9.8
01:30 1002 29.59 831 24.54 3 37.5 31 -12.7 9.2
01:35 1002 29.59 831 24.54 3 37.5 30 -12.9 8.8
01:40 1002 29.59 832 24.57 3.6 38.5 29 -12.7 9.2
01:45 1002 29.59 831 24.54 3.5 38.3 30 -12.7 9.2
01:50 1002 29.59 831 24.54 3.6 38.4 30 -12.6 9.3
01:55 1002 29.59 831 24.54 3.6 38.4 30 -12.6 9.4
02:00 1002 29.59 831 24.54 3.4 38.1 29 -13.3 8.1
02:05 1002 29.59 831 24.54 3.3 37.9 31 -12.3 9.8
02:10 1002 29.59 831 24.54 3 37.3 31 -12.5 9.5
02:15 1002 29.59 831 24.54 2.9 37.1 31 -12.9 8.8
02:20 1002 29.59 831 24.54 3 37.4 32 -12.1 10.2
02:25 1002 29.59 831 24.54 2.8 37 32 -12.6 9.4
02:30 1002 29.59 831 24.54 2.7 36.9 31 -12.9 8.8
02:35 1002 29.59 831 24.54 2.7 36.8 31 -12.8 9
02:40 1002 29.59 831 24.54 2.9 37.2 30 -13.2 8.3
02:45 1002 29.59 831 24.54 3.1 37.5 30 -13.1 8.5
02:50 1002 29.59 831 24.54 2.8 37 32 -12.6 9.4
02:55 1002 29.59 831 24.54 2.5 36.5 31 -12.8 8.9
03:00 1002 29.59 831 24.54 2.4 36.4 35 -11.4 11.5
03:05 1002 29.59 831 24.54 1.8 35.3 37 -11.3 11.6
03:10 1002 29.59 831 24.54 1.1 34 39 -11.4 11.5
03:15 1002 29.59 831 24.54 1.1 34 37 -12.2 10
03:20 1002 29.59 831 24.54 1.3 34.3 37 -11.9 10.6
03:25 1002 29.59 831 24.54 1.2 34.1 36 -12.3 9.9
03:30 1002 29.59 831 24.54 1.4 34.5 37 -11.9 10.5
03:35 1002 29.59 831 24.54 1.1 34 39 -11.4 11.5
03:40 1002 29.59 831 24.54 1 33.7 40 -11.2 11.9
03:45 1001 29.56 831 24.54 0.8 33.5 39 -11.7 11
03:50 1001 29.56 831 24.54 0.8 33.5 39 -11.6 11.2
03:55 1001 29.56 831 24.54 0.6 33.1 39 -11.9 10.6
04:00 1001 29.56 830 24.51 0.8 33.4 39 -11.6 11.1
04:05 1001 29.56 830 24.51 0.9 33.5 37 -12.1 10.2
04:10 1001 29.56 830 24.51 1 33.9 38 -11.9 10.6
04:15 1001 29.56 830 24.51 0.9 33.6 39 -11.4 11.4
04:20 1001 29.56 830 24.51 0.7 33.2 40 -11.5 11.3
04:25 1001 29.56 830 24.51 0.7 33.2 38 -12.1 10.3
04:30 1001 29.56 830 24.51 0.9 33.7 38 -11.9 10.5
04:35 1001 29.56 830 24.51 1 33.8 37 -12.3 9.9
04:40 1001 29.56 830 24.51 1.2 34.1 37 -11.9 10.6
04:45 1001 29.56 830 24.51 1.1 34.1 37 -12.1 10.2
04:50 1001 29.56 830 24.51 1.3 34.3 36 -12.1 10.2
04:55 1001 29.56 830 24.51 1.4 34.5 37 -11.7 11
05:00 1001 29.56 830 24.51 1.3 34.3 37 -11.8 10.8
05:05 1001 29.56 830 24.51 1.3 34.4 37 -11.9 10.6
05:10 1001 29.56 830 24.51 1.4 34.6 35 -12.4 9.7
05:15 1001 29.56 830 24.51 1.9 35.4 34 -12.5 9.5
05:20 1001 29.56 830 24.51 2.3 36.1 34 -11.9 10.6
05:25 1001 29.56 830 24.51 2.4 36.4 35 -11.4 11.5
05:30 1001 29.56 830 24.51 2.3 36.1 39 -10.4 13.3
05:35 1001 29.56 830 24.51 1.8 35.3 40 -10.3 13.4
05:40 1001 29.56 831 24.54 1.6 34.9 40 -10.4 13.2
05:45 1001 29.56 831 24.54 1.4 34.5 41 -10.5 13.1
05:50 1001 29.56 831 24.54 1.4 34.6 42 -10.2 13.6
05:55 1001 29.56 830 24.51 1.7 35.1 43 -9.5 14.8
06:00 1001 29.56 830 24.51 1.9 35.5 43 -9.5 15
06:05 1001 29.56 830 24.51 1.9 35.4 47 -8.3 17
06:10 1001 29.56 830 24.51 2.1 35.8 49 -7.6 18.3
06:15 1001 29.56 830 24.51 2.4 36.3 49 -7.2 19
06:20 1001 29.56 830 24.51 2.3 36.2 48 -7.6 18.4
06:25 1001 29.56 830 24.51 2.3 36.1 49 -7.4 18.8
06:30 1001 29.56 830 24.51 2.2 35.9 50 -7.3 18.9
06:35 1001 29.56 830 24.51 1.9 35.5 50 -7.4 18.6
06:40 1001 29.56 830 24.51 1.8 35.3 51 -7.4 18.7
06:45 1001 29.56 830 24.51 1.7 35.1 56 -6.1 21
06:50 1001 29.56 830 24.51 1.8 35.2 63 -4.5 23.9
06:55 1001 29.56 830 24.51 1.7 35.1 68 -3.5 25.6
07:00 1001 29.56 830 24.51 1.7 35 71 -3.1 26.5
07:05 1001 29.56 830 24.51 1.7 35 72 -2.9 26.7
07:10 1001 29.56 831 24.54 1.7 35 73 -2.6 27.3
07:15 1001 29.56 830 24.51 1.7 35.1 72 -2.7 27.1
07:20 1001 29.56 830 24.51 1.7 35.1 73 -2.5 27.5
07:25 1001 29.56 830 24.51 1.7 35 75 -2.3 27.9
07:30 1001 29.56 830 24.51 1.6 34.9 73 -2.7 27.1
07:35 1001 29.56 830 24.51 1.5 34.7 73 -2.8 26.9
07:40 1001 29.56 831 24.54 1.4 34.6 72 -3.2 26.3
07:45 1001 29.56 831 24.54 1.3 34.3 72 -3.3 26
07:50 1001 29.56 831 24.54 1.2 34.1 70 -3.7 25.3
07:55 1001 29.56 831 24.54 1.2 34.2 68 -4.1 24.6
08:00 1001 29.56 831 24.54 1.3 34.3 68 -4 24.9
08:05 1002 29.59 831 24.54 1.4 34.5 70 -3.5 25.8
08:10 1002 29.59 831 24.54 1.6 34.9 71 -3.1 26.4
08:15 1002 29.59 831 24.54 1.7 35.1 70 -3.1 26.4
08:20 1002 29.59 831 24.54 1.7 35.1 70 -3.1 26.4
08:25 1002 29.59 831 24.54 1.6 34.9 72 -2.9 26.7
08:30 1002 29.59 831 24.54 1.7 35 72 -2.9 26.7
08:35 1002 29.59 831 24.54 1.6 34.9 71 -3 26.6
08:40 1002 29.59 831 24.54 1.6 34.9 71 -3.1 26.5
08:45 1002 29.59 831 24.54 1.8 35.3 69 -3.2 26.3
08:50 1002 29.59 831 24.54 1.7 35.1 70 -3.1 26.3
08:55 1002 29.59 831 24.54 1.7 35 69 -3.4 25.9
09:00 1002 29.59 831 24.54 1.7 35.1 67 -3.7 25.3
09:05 1002 29.59 831 24.54 1.7 35.1 65 -4.2 24.4
09:10 1002 29.59 831 24.54 1.8 35.2 65 -4 24.8
09:15 1002 29.59 831 24.54 2 35.5 66 -3.8 25.1
09:20 1002 29.59 831 24.54 1.9 35.5 66 -3.8 25.2
09:25 1002 29.59 831 24.54 2 35.5 68 -3.4 26
09:30 1002 29.59 831 24.54 2 35.6 68 -3.3 26
09:35 1002 29.59 831 24.54 2.1 35.8 69 -2.9 26.7
09:40 1002 29.59 831 24.54 2.4 36.4 67 -3.2 26.3
09:45 1002 29.59 831 24.54 2.8 37 65 -3.2 26.2
09:50 1002 29.59 831 24.54 3.2 37.7 63 -3.2 26.2
09:55 1002 29.59 831 24.54 3.8 38.8 61 -3.1 26.5
10:00 1002 29.59 831 24.54 4.2 39.6 60 -2.9 26.8
10:05 1002 29.59 831 24.54 4.7 40.4 59 -2.8 27
10:10 1002 29.59 831 24.54 5.1 41.2 57 -2.7 27.1
10:15 1002 29.59 831 24.54 5.3 41.5 56 -2.8 26.9
10:20 1002 29.59 831 24.54 5.4 41.7 56 -2.8 27
10:25 1002 29.59 831 24.54 5.3 41.6 54 -3.3 26.1
10:30 1002 29.59 831 24.54 5.3 41.6 54 -3.3 26.1
10:35 1002 29.59 831 24.54 5.4 41.8 53 -3.3 26.1
10:40 1002 29.59 831 24.54 5.5 41.8 53 -3.3 26.1
10:45 1002 29.59 831 24.54 5.6 42 52 -3.4 25.9
10:50 1002 29.59 831 24.54 5.6 42.2 53 -3.3 26.1
10:55 1002 29.59 831 24.54 5.8 42.4 52 -3.2 26.3
11:00 1002 29.59 832 24.57 5.9 42.6 52 -3.2 26.3
11:05 1002 29.59 832 24.57 6.1 43 51 -3.3 26.1
11:10 1002 29.59 832 24.57 5.8 42.5 51 -3.6 25.6
11:15 1002 29.59 832 24.57 5.9 42.7 50 -3.6 25.6
11:20 1002 29.59 832 24.57 6 42.8 49 -3.8 25.1
11:25 1002 29.59 831 24.54 6.2 43.2 48 -3.9 25
11:30 1002 29.59 832 24.57 6.6 43.9 49 -3.3 26
11:35 1002 29.59 832 24.57 6.2 43.2 50 -3.3 26.1
11:40 1002 29.59 832 24.57 5.8 42.5 52 -3.3 26.1
11:45 1002 29.59 832 24.57 5.5 42 53 -3.3 26
11:50 1002 29.59 832 24.57 5.5 41.9 53 -3.3 26
11:55 1002 29.59 832 24.57 5.6 42 53 -3.3 26.1
12:00 1002 29.59 832 24.57 5.5 41.9 55 -2.9 26.7
12:05 1002 29.59 832 24.57 5.7 42.2 53 -3.1 26.5
12:10 1002 29.59 832 24.57 6.3 43.4 51 -3.1 26.4
12:15 1002 29.59 831 24.54 6.6 43.8 50 -3 26.6
12:20 1002 29.59 831 24.54 7.1 44.9 48 -3.1 26.4
12:25 1002 29.59 831 24.54 7.2 45 49 -2.8 26.9
12:30 1002 29.59 831 24.54 7.1 44.8 48 -3.1 26.4
12:35 1002 29.59 831 24.54 7.3 45.1 45 -3.7 25.3
12:40 1002 29.59 831 24.54 7.2 45 47 -3.4 25.9
12:45 1002 29.59 831 24.54 7 44.6 48 -3.3 26
12:50 1002 29.59 831 24.54 7.2 45 46 -3.7 25.4
12:55 1002 29.59 831 24.54 7.3 45.1 45 -3.7 25.3
13:00 1002 29.59 831 24.54 7 44.6 46 -3.8 25.1
13:05 1002 29.59 831 24.54 6.9 44.4 46 -4 24.7
13:10 1002 29.59 831 24.54 6.7 44.1 46 -4 24.8
13:15 1002 29.59 831 24.54 6.5 43.7 47 -4.1 24.7
13:20 1002 29.59 831 24.54 6.7 44.1 45 -4.4 24
13:25 1002 29.59 831 24.54 6.7 44.1 44 -4.7 23.5
13:30 1002 29.59 831 24.54 6.5 43.7 45 -4.6 23.7
13:35 1002 29.59 831 24.54 6.5 43.8 45 -4.6 23.7
13:40 1002 29.59 831 24.54 6.5 43.7 44 -5 23
13:45 1002 29.59 831 24.54 6.4 43.4 45 -4.8 23.3
13:50 1002 29.59 831 24.54 6.6 43.9 45 -4.5 23.9
13:55 1002 29.59 831 24.54 6.6 43.9 45 -4.6 23.8
14:00 1002 29.59 831 24.54 6.5 43.8 44 -4.9 23.3
14:05 1002 29.59 831 24.54 6.6 43.9 44 -4.7 23.5
14:10 1002 29.59 831 24.54 6.9 44.5 44 -4.6 23.8
14:15 1002 29.59 831 24.54 7 44.7 42 -4.9 23.2
14:20 1002 29.59 831 24.54 7.1 44.8 43 -4.7 23.6
14:25 1002 29.59 831 24.54 7.1 44.8 45 -4 24.8
14:30 1002 29.59 831 24.54 6.7 44.1 43 -5.1 22.9
14:35 1002 29.59 831 24.54 6.9 44.5 43 -4.9 23.2
14:40 1002 29.59 831 24.54 6.6 43.9 44 -4.9 23.2
14:45 1002 29.59 831 24.54 6.7 44.1 44 -4.8 23.4
14:50 1002 29.59 831 24.54 6.6 43.9 43 -4.9 23.1
14:55 1002 29.59 831 24.54 6.6 43.8 43 -5.2 22.6
15:00 1002 29.59 831 24.54 6.6 43.9 42 -5.5 22
15:05 1002 29.59 831 24.54 6.2 43.2 43 -5.4 22.3
15:10 1002 29.59 831 24.54 6 42.8 46 -4.8 23.3
15:15 1002 29.59 831 24.54 5.7 42.3 44 -5.4 22.2
15:20 1002 29.59 831 24.54 5.5 41.8 46 -5.2 22.7
15:25 1002 29.59 832 24.57 5.5 42 45 -5.4 22.3
15:30 1002 29.59 832 24.57 5.7 42.2 45 -5.4 22.3
15:35 1002 29.59 832 24.57 5.8 42.5 44 -5.5 22.1
15:40 1002 29.59 832 24.57 6 42.7 44 -5.5 22.1
15:45 1002 29.59 832 24.57 5.9 42.6 44 -5.5 22.1
15:50 1002 29.59 832 24.57 5.8 42.5 44 -5.5 22.1
15:55 1002 29.59 832 24.57 5.8 42.4 44 -5.6 21.9
16:00 1003 29.62 832 24.57 5.6 42.1 44 -5.8 21.6
16:05 1003 29.62 832 24.57 5.7 42.3 41 -6.7 19.9
16:10 1003 29.62 832 24.57 5.8 42.4 41 -6.6 20.1
16:15 1003 29.62 832 24.57 5.6 42.2 43 -5.9 21.4
16:20 1003 29.62 832 24.57 5.4 41.8 44 -5.9 21.4
16:25 1003 29.62 832 24.57 5.2 41.4 44 -5.9 21.3
16:30 1003 29.62 832 24.57 4.8 40.7 45 -6 21.1
16:35 1003 29.62 832 24.57 4.5 40.2 45 -6.4 20.5
16:40 1003 29.62 832 24.57 4.4 40 45 -6.6 20.1
16:45 1003 29.62 832 24.57 4.4 39.8 44 -7 19.5
16:50 1003 29.62 832 24.57 4.3 39.7 43 -7.1 19.2
16:55 1003 29.62 832 24.57 4 39.2 43 -7.3 18.8
17:00 1003 29.62 832 24.57 3.9 39 43 -7.5 18.5
17:05 1003 29.62 832 24.57 3.8 38.8 43 -7.8 18
17:10 1003 29.62 832 24.57 3.7 38.7 43 -7.7 18.1
17:15 1003 29.62 832 24.57 3.6 38.4 42 -8.1 17.5
17:20 1003 29.62 832 24.57 3.6 38.5 41 -8.5 16.7
17:25 1003 29.62 832 24.57 3.6 38.4 41 -8.4 16.9
17:30 1003 29.62 832 24.57 3.3 38 42 -8.4 16.8
17:35 1003 29.62 832 24.57 3.3 37.9 42 -8.6 16.5
17:40 1003 29.62 832 24.57 3.1 37.6 42 -8.6 16.6
17:45 1003 29.62 832 24.57 3 37.5 42 -8.5 16.6
17:50 1003 29.62 832 24.57 2.8 37.1 43 -8.5 16.8
17:55 1003 29.62 832 24.57 2.6 36.7 44 -8.4 16.9
18:00 1003 29.62 832 24.57 2.6 36.7 43 -8.8 16.2
18:05 1003 29.62 832 24.57 2.7 36.8 42 -8.9 15.9
18:10 1003 29.62 832 24.57 2.7 36.9 41 -9.1 15.6
18:15 1003 29.62 832 24.57 2.8 37 41 -9.2 15.4
18:20 1003 29.62 832 24.57 2.8 37 41 -9.2 15.4
18:25 1003 29.62 832 24.57 2.9 37.1 41 -9.2 15.5
18:30 1003 29.62 832 24.57 2.9 37.2 41 -9.2 15.5
18:35 1003 29.62 832 24.57 2.9 37.1 41 -9.2 15.5
18:40 1003 29.62 832 24.57 2.9 37.1 42 -8.9 16
18:45 1003 29.62 833 24.6 2.8 37.1 42 -8.8 16.2
18:50 1003 29.62 833 24.6 2.8 37 42 -8.7 16.3
18:55 1003 29.62 832 24.57 2.8 37.1 41 -9.1 15.6
19:00 1003 29.62 832 24.57 2.8 37.1 41 -9.2 15.4
19:05 1003 29.62 832 24.57 2.9 37.1 40 -9.3 15.2
19:10 1003 29.62 833 24.6 2.8 37.1 40 -9.4 15
19:15 1003 29.62 833 24.6 2.9 37.2 41 -9.1 15.7
19:20 1003 29.62 833 24.6 2.9 37.2 40 -9.3 15.2
19:25 1003 29.62 833 24.6 2.9 37.3 41 -9 15.7
19:30 1003 29.62 833 24.6 2.9 37.2 42 -8.8 16.2
19:35 1003 29.62 833 24.6 2.8 37 43 -8.4 16.8
19:40 1003 29.62 833 24.6 2.7 36.9 45 -8.2 17.3
19:45 1003 29.62 833 24.6 2.6 36.8 45 -8.1 17.4
19:50 1003 29.62 833 24.6 2.6 36.8 45 -8 17.5
19:55 1003 29.62 833 24.6 2.7 36.8 46 -7.9 17.7
20:00 1003 29.62 833 24.6 2.7 36.8 46 -7.9 17.7
20:05 1003 29.62 833 24.6 2.7 36.8 46 -7.8 18
20:10 1003 29.62 833 24.6 2.7 36.8 46 -7.7 18.1
20:15 1003 29.62 833 24.6 2.6 36.7 48 -7.4 18.7
20:20 1003 29.62 833 24.6 2.5 36.4 50 -7 19.3
20:25 1003 29.62 832 24.57 2.2 35.9 52 -6.8 19.7
20:30 1003 29.62 832 24.57 1.9 35.5 53 -6.8 19.8
20:35 1003 29.62 832 24.57 1.8 35.3 53 -6.7 19.9
20:40 1003 29.62 832 24.57 1.8 35.2 54 -6.6 20.1
20:45 1003 29.62 832 24.57 1.7 35 53 -7 19.5
20:50 1003 29.62 832 24.57 1.8 35.3 51 -7.2 19.1
20:55 1003 29.62 832 24.57 1.9 35.4 51 -7.1 19.2
21:00 1003 29.62 832 24.57 2 35.6 50 -7.3 18.9
21:05 1003 29.62 832 24.57 2 35.6 52 -6.8 19.7
21:10 1003 29.62 832 24.57 1.8 35.3 54 -6.4 20.4
21:15 1003 29.62 832 24.57 1.6 34.9 55 -6.5 20.3
21:20 1003 29.62 832 24.57 1.6 34.8 55 -6.6 20.2
21:25 1003 29.62 832 24.57 1.5 34.7 55 -6.6 20
21:30 1003 29.62 832 24.57 1.4 34.5 56 -6.5 20.3
21:35 1003 29.62 832 24.57 1.3 34.3 57 -6.4 20.5
21:40 1002 29.59 832 24.57 1 33.8 58 -6.4 20.4
21:45 1002 29.59 832 24.57 0.9 33.6 58 -6.5 20.4
21:50 1002 29.59 832 24.57 0.8 33.4 58 -6.6 20.2
21:55 1002 29.59 832 24.57 0.8 33.4 57 -6.8 19.8
22:00 1002 29.59 832 24.57 0.9 33.6 56 -7 19.4
22:05 1002 29.59 831 24.54 0.9 33.7 55 -7.1 19.2
22:10 1002 29.59 831 24.54 0.9 33.6 56 -7 19.4
22:15 1002 29.59 831 24.54 0.7 33.2 57 -6.9 19.6
22:20 1002 29.59 831 24.54 0.5 32.9 59 -6.7 20
22:25 1002 29.59 831 24.54 0.4 32.7 60 -6.4 20.4
22:30 1002 29.59 831 24.54 0.5 33 61 -6.2 20.9
22:35 1002 29.59 831 24.54 0.6 33.1 62 -5.9 21.3
22:40 1002 29.59 831 24.54 0.6 33.1 62 -5.9 21.5
22:45 1002 29.59 831 24.54 0.5 33 63 -5.8 21.6
22:50 1002 29.59 831 24.54 0.5 33 63 -5.8 21.6
22:55 1002 29.59 831 24.54 0.5 32.9 63 -5.8 21.5
23:00 1002 29.59 831 24.54 0.5 32.8 63 -5.9 21.4
23:05 1002 29.59 831 24.54 0.5 32.8 62 -6 21.3
23:10 1002 29.59 831 24.54 0.5 32.9 61 -6.1 21
23:15 1002 29.59 831 24.54 0.6 33 61 -6.2 20.9
23:20 1002 29.59 831 24.54 0.6 33 60 -6.2 20.8
23:25 1002 29.59 831 24.54 0.5 32.9 60 -6.3 20.6
23:30 1002 29.59 831 24.54 0.5 32.9 60 -6.4 20.5
23:35 1002 29.59 831 24.54 0.6 33 59 -6.6 20.1
23:40 1002 29.59 831 24.54 0.7 33.2 57 -6.8 19.8
23:45 1002 29.59 831 24.54 0.8 33.4 56 -6.9 19.5
23:50 1002 29.59 831 24.54 0.8 33.4 55 -7.3 18.9
23:55 1001 29.56 831 24.54 0.8 33.5 53 -7.7 18.1
24:00 1001 29.56 831 24.54 0.8 33.5 52 -8 17.5